MSC Susanna — 3ECU4 — position and weather

sailwx.info

Track history (hours):
 
Tides and Currents Weather Stations Pressure Air Temp Water Temp Dewpoint Dewpoint Depression Visibility Wind Speed Wind Dir Waves Ship Positions

MSC Susanna

Last reported at 2016-May-26 12:32 UTC. Time now 2016-May-26 12:36 UTC.
Position N 51°19' E 004°20'.

Length 337 m; draft 11.6 m.

Type: Ship (hazmat cat A). MMSI: 371466000.

Date/timePositionNaut miles runAvg speedWind from/ knotsBaromVisibWave heightAir tempDewpointWater temp
2016-May-26 12:32N 51°19' E 004°20'0 0.1
2016-May-26 11:34N 51°20' E 004°19'2 1.8
2016-May-26 10:34N 51°21' E 004°17'0 0.4
2016-May-26 09:33N 51°21' E 004°16'8 8.1
2016-May-26 08:33N 51°22' E 004°04'6 6.2
2016-May-26 07:33N 51°21' E 003°54'1010.1
2016-May-26 06:33N 51°26' E 003°40'8 7.9
2016-May-26 05:33N 51°25' E 003°27'9 9.2
2016-May-26 04:33N 51°24' E 003°13'8 8.2
2016-May-26 03:33N 51°27' E 003°00'1212.5
2016-May-26 02:33N 51°38' E 003°11'5016.0
2016-May-25 23:25N 52°27' E 003°27'1820.1
2016-May-25 22:31N 52°44' E 003°39'2119.4
2016-May-25 21:26N 52°59' E 004°02'5218.0
2016-May-25 18:33N 53°36' E 005°05'2019.9
2016-May-25 17:34N 53°42' E 005°36'2121.0
2016-May-25 16:34N 53°48' E 006°10'2221.6
2016-May-25 15:34N 53°53' E 006°46'2121.4
2016-May-25 14:34N 53°58' E 007°21'2020.4
2016-May-25 13:33N 54°01' E 007°56'1716.9
2016-May-25 12:33N 53°59' E 008°24'1414.2
2016-May-25 11:33N 53°52' E 008°45'1010.3
2016-May-25 10:33N 53°52' E 009°02'1212.4
2016-May-25 09:34N 53°48' E 009°22'1414.5
2016-May-25 08:34N 53°36' E 009°35'1211.6
2016-May-25 07:34N 53°32' E 009°54'1 0.7
2016-May-25 06:32N 53°32' E 009°55'0 0.0
2016-May-25 05:32N 53°32' E 009°55'0 0.0
2016-May-25 04:32N 53°32' E 009°55'0 0.0
2016-May-25 03:32N 53°32' E 009°55'0 0.0
2016-May-25 02:32N 53°32' E 009°55'0 0.0
2016-May-25 01:29N 53°32' E 009°55'0 0.0
2016-May-25 00:32N 53°32' E 009°55'0 0.0
2016-May-24 23:32N 53°32' E 009°55'0 0.0
2016-May-24 22:32N 53°32' E 009°55'0 0.0
2016-May-24 21:32N 53°32' E 009°55'0 0.0
2016-May-24 20:32N 53°32' E 009°55'0 0.0
2016-May-24 19:32N 53°32' E 009°55'0 0.0
2016-May-24 18:32N 53°32' E 009°55'0 0.0
2016-May-24 17:32N 53°32' E 009°55'0 0.0
2016-May-24 16:32N 53°32' E 009°55'0 0.0
2016-May-24 15:32N 53°32' E 009°55'0 0.0
2016-May-24 14:32N 53°32' E 009°55'0 0.0
2016-May-24 13:32N 53°32' E 009°55'0 0.0
2016-May-24 12:32N 53°32' E 009°55'0 0.0
2016-May-24 11:32N 53°32' E 009°55'0 0.0
2016-May-24 10:32N 53°32' E 009°55'0 0.0
2016-May-24 09:29N 53°32' E 009°55'0 0.0
2016-May-24 08:32N 53°32' E 009°55'0 0.0
2016-May-24 07:32N 53°32' E 009°55'0 0.4
2016-May-24 06:33N 53°32' E 009°54'4 4.2
2016-May-24 05:34N 53°33' E 009°47'1111.4
2016-May-24 04:33N 53°39' E 009°31'1514.8
2016-May-24 03:34N 53°52' E 009°18'1312.6
2016-May-24 02:34N 53°51' E 008°56'1312.6
2016-May-24 01:34N 53°57' E 008°38'1615.6
2016-May-24 00:33N 53°59' E 008°12'8 7.5
2016-May-23 23:33N 53°58' E 007°59'3 3.2
2016-May-23 22:32N 53°56' E 007°55'2 1.7
2016-May-23 21:33N 53°57' E 007°52'1110.7
2016-May-23 20:33N 53°55' E 007°34'2020.0
2016-May-23 19:33N 53°51' E 007°01'2020.4
2016-May-23 18:33N 53°46' E 006°28'2120.5
2016-May-23 17:33N 53°40' E 005°54'2020.4
2016-May-23 16:33N 53°34' E 005°22'2019.9
2016-May-23 15:33N 53°27' E 004°51'2018.7
2016-May-23 14:30N 53°11' E 004°31'1819.4
2016-May-23 13:33N 52°54' E 004°17'2119.5
2016-May-23 12:28N 52°37' E 003°57'1819.7
2016-May-23 11:33N 52°25' E 003°34'4518.9
2016-May-23 09:09N 51°56' E 002°38'1119.4
2016-May-23 08:33N 51°54' E 002°19'1919.0
2016-May-23 07:34N 51°49' E 001°50'1413.9
2016-May-23 06:33N 51°56' E 001°31'9 8.5
2016-May-23 05:32N 51°58' E 001°17'0 0.0
2016-May-23 04:32N 51°58' E 001°17'0 0.0
2016-May-23 03:32N 51°58' E 001°17'0 0.0
2016-May-23 02:32N 51°58' E 001°17'0 0.0
2016-May-23 01:32N 51°58' E 001°17'0 0.0
2016-May-23 00:32N 51°58' E 001°17'0 0.0
2016-May-22 23:32N 51°58' E 001°17'0 0.0
2016-May-22 22:32N 51°58' E 001°17'0 0.0
2016-May-22 21:32N 51°58' E 001°17'0 0.0
2016-May-22 20:32N 51°58' E 001°17'0 0.0
2016-May-22 19:32N 51°58' E 001°17'0 0.0
2016-May-22 18:32N 51°58' E 001°17'0 0.0
2016-May-22 17:32N 51°58' E 001°17'0 0.0
2016-May-22 16:32N 51°58' E 001°17'0 0.0
2016-May-22 15:29N 51°58' E 001°17'0 0.0
2016-May-22 14:32N 51°58' E 001°17'0 0.0
2016-May-22 13:32N 51°58' E 001°17'0 0.0
2016-May-22 12:32N 51°58' E 001°17'0 0.0
2016-May-22 11:29N 51°58' E 001°17'0 0.0
2016-May-22 10:31N 51°58' E 001°17'0 0.0
2016-May-22 09:31N 51°58' E 001°17'0 0.0
2016-May-22 08:31N 51°58' E 001°17'0 0.0
2016-May-22 07:31N 51°58' E 001°17'0 0.0
2016-May-22 06:31N 51°58' E 001°17'0 0.0
2016-May-22 05:31N 51°58' E 001°17'2 2.5
2016-May-22 04:33N 51°56' E 001°19'1010.0
2016-May-22 03:34N 51°52' E 001°34'9 8.6
2016-May-22 02:34N 51°49' E 001°47'1414.3
2016-May-22 01:34N 51°35' E 001°53'1413.6
2016-May-22 00:33N 51°23' E 002°01'1717.0
2016-May-21 23:33N 51°09' E 001°44'1817.9
2016-May-21 22:33N 50°55' E 001°26'5418.1
2016-May-21 19:33N 50°24' E 000°16'2019.7
2016-May-21 18:33N 50°18' W 000°14'1919.4
2016-May-21 17:33N 50°13' W 000°43'8817.6
2016-May-21 12:33N 49°47' W 002°54'1817.5
2016-May-21 11:33N 49°38' W 003°17'7917.9
2016-May-21 07:07N 48°59' W 005°03'1118.8
2016-May-21 06:33N 48°53' W 005°17'61818.7
2016-May-19 21:33N 39°08' W 009°53'1919.3
2016-May-19 20:33N 38°49' W 009°52'1918.7
2016-May-19 19:33N 38°30' W 009°49'1918.6
2016-May-19 18:33N 38°12' W 009°43'1918.9
2016-May-19 17:33N 37°54' W 009°38'1918.7
2016-May-19 16:33N 37°35' W 009°32'1919.0
2016-May-19 15:33N 37°17' W 009°27'2218.9
2016-May-19 14:24N 36°56' W 009°21'3618.1
2016-May-19 12:25N 36°37' W 008°42'1618.7
2016-May-19 11:33N 36°32' W 008°23'1919.2
2016-May-19 10:33N 36°26' W 008°00'2019.3
2016-May-19 09:32N 36°21' W 007°37'4519.3
2016-May-19 07:13N 36°05' W 006°45'28818.4
2016-May-18 15:33N 36°40' W 000°50'1918.9
2016-May-18 14:33N 36°45' W 000°27'1918.8
2016-May-18 13:33N 36°49' W 000°05'1919.0
2016-May-18 12:33N 36°53' E 000°19'2019.3
2016-May-18 11:31N 36°58' E 000°43'2519.5
2016-May-18 10:14N 37°03' E 001°14'19119.6
2016-May-18 00:32N 37°44' E 005°08'33619.6
2016-May-17 07:26N 38°15' E 012°12'1719.6
2016-May-17 06:33N 38°16' E 012°34'1919.4
2016-May-17 05:33N 38°18' E 012°58'1919.0
2016-May-17 04:33N 38°19' E 013°23'2019.7
2016-May-17 03:34N 38°19' E 013°48'2019.7
2016-May-17 02:33N 38°18' E 014°13'2019.6
2016-May-17 01:33N 38°18' E 014°38'1919.5
2016-May-17 00:33N 38°19' E 015°03'1919.1
2016-May-16 23:33N 38°23' E 015°27'1919.1
2016-May-16 22:33N 38°28' E 015°50'3 3.0
2016-May-16 21:29N 38°28' E 015°54'0 0.0
2016-May-16 20:32N 38°28' E 015°54'0 0.0
2016-May-16 19:22N 38°28' E 015°54'0 0.0
2016-May-16 16:13N 38°28' E 015°54'0 0.0
2016-May-16 15:28N 38°28' E 015°54'0 0.0
2016-May-16 13:13N 38°28' E 015°54'  
Track history (hours):
 
Tides and Currents Weather Stations Pressure Air Temp Water Temp Dewpoint Dewpoint Depression Visibility Wind Speed Wind Dir Waves Ship Positions

MSC Susanna

Last reported at 2016-May-26 12:32 UTC. Time now 2016-May-26 12:36 UTC.
Position N 51°19' E 004°20'.

Length 337 m; draft 11.6 m.

Type: Ship (hazmat cat A). MMSI: 371466000.

Date/timePositionNaut miles runAvg speedWind from/ knotsBaromVisibWave heightAir tempDewpointWater temp
2016-May-26 12:32N 51°19' E 004°20'0 0.1
2016-May-26 11:34N 51°20' E 004°19'2 1.8
2016-May-26 10:34N 51°21' E 004°17'0 0.4
2016-May-26 09:33N 51°21' E 004°16'8 8.1
2016-May-26 08:33N 51°22' E 004°04'6 6.2
2016-May-26 07:33N 51°21' E 003°54'1010.1
2016-May-26 06:33N 51°26' E 003°40'8 7.9
2016-May-26 05:33N 51°25' E 003°27'9 9.2
2016-May-26 04:33N 51°24' E 003°13'8 8.2
2016-May-26 03:33N 51°27' E 003°00'1212.5
2016-May-26 02:33N 51°38' E 003°11'5016.0
2016-May-25 23:25N 52°27' E 003°27'1820.1
2016-May-25 22:31N 52°44' E 003°39'2119.4
2016-May-25 21:26N 52°59' E 004°02'5218.0
2016-May-25 18:33N 53°36' E 005°05'2019.9
2016-May-25 17:34N 53°42' E 005°36'2121.0
2016-May-25 16:34N 53°48' E 006°10'2221.6
2016-May-25 15:34N 53°53' E 006°46'2121.4
2016-May-25 14:34N 53°58' E 007°21'2020.4
2016-May-25 13:33N 54°01' E 007°56'1716.9
2016-May-25 12:33N 53°59' E 008°24'1414.2
2016-May-25 11:33N 53°52' E 008°45'1010.3
2016-May-25 10:33N 53°52' E 009°02'1212.4
2016-May-25 09:34N 53°48' E 009°22'1414.5
2016-May-25 08:34N 53°36' E 009°35'1211.6
2016-May-25 07:34N 53°32' E 009°54'1 0.7
2016-May-25 06:32N 53°32' E 009°55'0 0.0
2016-May-25 05:32N 53°32' E 009°55'0 0.0
2016-May-25 04:32N 53°32' E 009°55'0 0.0
2016-May-25 03:32N 53°32' E 009°55'0 0.0
2016-May-25 02:32N 53°32' E 009°55'0 0.0
2016-May-25 01:29N 53°32' E 009°55'0 0.0
2016-May-25 00:32N 53°32' E 009°55'0 0.0
2016-May-24 23:32N 53°32' E 009°55'0 0.0
2016-May-24 22:32N 53°32' E 009°55'0 0.0
2016-May-24 21:32N 53°32' E 009°55'0 0.0
2016-May-24 20:32N 53°32' E 009°55'0 0.0
2016-May-24 19:32N 53°32' E 009°55'0 0.0
2016-May-24 18:32N 53°32' E 009°55'0 0.0
2016-May-24 17:32N 53°32' E 009°55'0 0.0
2016-May-24 16:32N 53°32' E 009°55'0 0.0
2016-May-24 15:32N 53°32' E 009°55'0 0.0
2016-May-24 14:32N 53°32' E 009°55'0 0.0
2016-May-24 13:32N 53°32' E 009°55'0 0.0
2016-May-24 12:32N 53°32' E 009°55'0 0.0
2016-May-24 11:32N 53°32' E 009°55'0 0.0
2016-May-24 10:32N 53°32' E 009°55'0 0.0
2016-May-24 09:29N 53°32' E 009°55'0 0.0
2016-May-24 08:32N 53°32' E 009°55'0 0.0
2016-May-24 07:32N 53°32' E 009°55'0 0.4
2016-May-24 06:33N 53°32' E 009°54'4 4.2
2016-May-24 05:34N 53°33' E 009°47'1111.4
2016-May-24 04:33N 53°39' E 009°31'1514.8
2016-May-24 03:34N 53°52' E 009°18'1312.6
2016-May-24 02:34N 53°51' E 008°56'1312.6
2016-May-24 01:34N 53°57' E 008°38'1615.6
2016-May-24 00:33N 53°59' E 008°12'8 7.5
2016-May-23 23:33N 53°58' E 007°59'3 3.2
2016-May-23 22:32N 53°56' E 007°55'2 1.7
2016-May-23 21:33N 53°57' E 007°52'1110.7
2016-May-23 20:33N 53°55' E 007°34'2020.0
2016-May-23 19:33N 53°51' E 007°01'2020.4
2016-May-23 18:33N 53°46' E 006°28'2120.5
2016-May-23 17:33N 53°40' E 005°54'2020.4
2016-May-23 16:33N 53°34' E 005°22'2019.9
2016-May-23 15:33N 53°27' E 004°51'2018.7
2016-May-23 14:30N 53°11' E 004°31'1819.4
2016-May-23 13:33N 52°54' E 004°17'2119.5
2016-May-23 12:28N 52°37' E 003°57'1819.7
2016-May-23 11:33N 52°25' E 003°34'4518.9
2016-May-23 09:09N 51°56' E 002°38'1119.4
2016-May-23 08:33N 51°54' E 002°19'1919.0
2016-May-23 07:34N 51°49' E 001°50'1413.9
2016-May-23 06:33N 51°56' E 001°31'9 8.5
2016-May-23 05:32N 51°58' E 001°17'0 0.0
2016-May-23 04:32N 51°58' E 001°17'0 0.0
2016-May-23 03:32N 51°58' E 001°17'0 0.0
2016-May-23 02:32N 51°58' E 001°17'0 0.0
2016-May-23 01:32N 51°58' E 001°17'0 0.0
2016-May-23 00:32N 51°58' E 001°17'0 0.0
2016-May-22 23:32N 51°58' E 001°17'0 0.0
2016-May-22 22:32N 51°58' E 001°17'0 0.0
2016-May-22 21:32N 51°58' E 001°17'0 0.0
2016-May-22 20:32N 51°58' E 001°17'0 0.0
2016-May-22 19:32N 51°58' E 001°17'0 0.0
2016-May-22 18:32N 51°58' E 001°17'0 0.0
2016-May-22 17:32N 51°58' E 001°17'0 0.0
2016-May-22 16:32N 51°58' E 001°17'0 0.0
2016-May-22 15:29N 51°58' E 001°17'0 0.0
2016-May-22 14:32N 51°58' E 001°17'0 0.0
2016-May-22 13:32N 51°58' E 001°17'0 0.0
2016-May-22 12:32N 51°58' E 001°17'0 0.0
2016-May-22 11:29N 51°58' E 001°17'0 0.0
2016-May-22 10:31N 51°58' E 001°17'0 0.0
2016-May-22 09:31N 51°58' E 001°17'0 0.0
2016-May-22 08:31N 51°58' E 001°17'0 0.0
2016-May-22 07:31N 51°58' E 001°17'0 0.0
2016-May-22 06:31N 51°58' E 001°17'0 0.0
2016-May-22 05:31N 51°58' E 001°17'2 2.5
2016-May-22 04:33N 51°56' E 001°19'1010.0
2016-May-22 03:34N 51°52' E 001°34'9 8.6
2016-May-22 02:34N 51°49' E 001°47'1414.3
2016-May-22 01:34N 51°35' E 001°53'1413.6
2016-May-22 00:33N 51°23' E 002°01'1717.0
2016-May-21 23:33N 51°09' E 001°44'1817.9
2016-May-21 22:33N 50°55' E 001°26'5418.1
2016-May-21 19:33N 50°24' E 000°16'2019.7
2016-May-21 18:33N 50°18' W 000°14'1919.4
2016-May-21 17:33N 50°13' W 000°43'8817.6
2016-May-21 12:33N 49°47' W 002°54'1817.5
2016-May-21 11:33N 49°38' W 003°17'7917.9
2016-May-21 07:07N 48°59' W 005°03'1118.8
2016-May-21 06:33N 48°53' W 005°17'61818.7
2016-May-19 21:33N 39°08' W 009°53'1919.3
2016-May-19 20:33N 38°49' W 009°52'1918.7
2016-May-19 19:33N 38°30' W 009°49'1918.6
2016-May-19 18:33N 38°12' W 009°43'1918.9
2016-May-19 17:33N 37°54' W 009°38'1918.7
2016-May-19 16:33N 37°35' W 009°32'1919.0
2016-May-19 15:33N 37°17' W 009°27'2218.9
2016-May-19 14:24N 36°56' W 009°21'3618.1
2016-May-19 12:25N 36°37' W 008°42'1618.7
2016-May-19 11:33N 36°32' W 008°23'1919.2
2016-May-19 10:33N 36°26' W 008°00'2019.3
2016-May-19 09:32N 36°21' W 007°37'4519.3
2016-May-19 07:13N 36°05' W 006°45'28818.4
2016-May-18 15:33N 36°40' W 000°50'1918.9
2016-May-18 14:33N 36°45' W 000°27'1918.8
2016-May-18 13:33N 36°49' W 000°05'1919.0
2016-May-18 12:33N 36°53' E 000°19'2019.3
2016-May-18 11:31N 36°58' E 000°43'2519.5
2016-May-18 10:14N 37°03' E 001°14'19119.6
2016-May-18 00:32N 37°44' E 005°08'33619.6
2016-May-17 07:26N 38°15' E 012°12'1719.6
2016-May-17 06:33N 38°16' E 012°34'1919.4
2016-May-17 05:33N 38°18' E 012°58'1919.0
2016-May-17 04:33N 38°19' E 013°23'2019.7
2016-May-17 03:34N 38°19' E 013°48'2019.7
2016-May-17 02:33N 38°18' E 014°13'2019.6
2016-May-17 01:33N 38°18' E 014°38'1919.5
2016-May-17 00:33N 38°19' E 015°03'1919.1
2016-May-16 23:33N 38°23' E 015°27'1919.1
2016-May-16 22:33N 38°28' E 015°50'3 3.0
2016-May-16 21:29N 38°28' E 015°54'0 0.0
2016-May-16 20:32N 38°28' E 015°54'0 0.0
2016-May-16 19:22N 38°28' E 015°54'0 0.0
2016-May-16 16:13N 38°28' E 015°54'0 0.0
2016-May-16 15:28N 38°28' E 015°54'0 0.0
2016-May-16 13:13N 38°28' E 015°54'  

Dump ship's entire track history